sensor_id;sensor_type;location;lat;lon;timestamp;P1;durP1;ratioP1;P2;durP2;ratioP2
27412;SDS011;14871;52.702;5.230;2023-05-07T00:01:49;23.40;;;21.00;;
27412;SDS011;14871;52.702;5.230;2023-05-07T00:04:15;25.67;;;22.08;;
27412;SDS011;14871;52.702;5.230;2023-05-07T00:06:41;27.33;;;23.58;;
27412;SDS011;14871;52.702;5.230;2023-05-07T00:09:06;25.60;;;22.98;;
27412;SDS011;14871;52.702;5.230;2023-05-07T00:11:32;28.40;;;24.92;;
27412;SDS011;14871;52.702;5.230;2023-05-07T00:13:58;27.70;;;24.85;;
27412;SDS011;14871;52.702;5.230;2023-05-07T00:16:24;29.20;;;24.55;;
27412;SDS011;14871;52.702;5.230;2023-05-07T00:18:50;28.50;;;25.50;;
27412;SDS011;14871;52.702;5.230;2023-05-07T00:21:17;29.83;;;26.38;;
27412;SDS011;14871;52.702;5.230;2023-05-07T00:23:42;29.30;;;25.58;;
27412;SDS011;14871;52.702;5.230;2023-05-07T00:26:08;27.77;;;24.77;;
27412;SDS011;14871;52.702;5.230;2023-05-07T00:28:34;28.27;;;25.17;;
27412;SDS011;14871;52.702;5.230;2023-05-07T00:31:00;28.63;;;25.55;;
27412;SDS011;14871;52.702;5.230;2023-05-07T00:33:26;29.65;;;26.38;;
27412;SDS011;14871;52.702;5.230;2023-05-07T00:35:52;29.27;;;25.85;;
27412;SDS011;14871;52.702;5.230;2023-05-07T00:38:19;27.55;;;24.58;;
27412;SDS011;14871;52.702;5.230;2023-05-07T00:40:45;27.00;;;23.83;;
27412;SDS011;14871;52.702;5.230;2023-05-07T00:43:11;27.77;;;24.40;;
27412;SDS011;14871;52.702;5.230;2023-05-07T00:45:37;27.45;;;24.45;;
27412;SDS011;14871;52.702;5.230;2023-05-07T00:48:03;26.48;;;23.63;;
27412;SDS011;14871;52.702;5.230;2023-05-07T00:50:30;26.40;;;23.50;;
27412;SDS011;14871;52.702;5.230;2023-05-07T00:52:57;28.02;;;23.52;;
27412;SDS011;14871;52.702;5.230;2023-05-07T00:55:24;25.38;;;22.70;;
27412;SDS011;14871;52.702;5.230;2023-05-07T00:57:50;26.20;;;22.60;;
27412;SDS011;14871;52.702;5.230;2023-05-07T01:00:16;27.98;;;23.95;;
27412;SDS011;14871;52.702;5.230;2023-05-07T01:02:43;27.88;;;23.05;;
27412;SDS011;14871;52.702;5.230;2023-05-07T01:05:10;26.20;;;23.40;;
27412;SDS011;14871;52.702;5.230;2023-05-07T01:07:40;26.95;;;21.75;;
27412;SDS011;14871;52.702;5.230;2023-05-07T01:10:07;24.67;;;22.08;;
27412;SDS011;14871;52.702;5.230;2023-05-07T01:12:35;25.35;;;21.08;;
27412;SDS011;14871;52.702;5.230;2023-05-07T01:15:02;23.95;;;21.45;;
27412;SDS011;14871;52.702;5.230;2023-05-07T01:17:29;24.30;;;21.73;;
27412;SDS011;14871;52.702;5.230;2023-05-07T01:19:58;24.42;;;20.02;;
27412;SDS011;14871;52.702;5.230;2023-05-07T01:22:35;25.23;;;21.10;;
27412;SDS011;14871;52.702;5.230;2023-05-07T01:25:05;22.60;;;19.83;;
27412;SDS011;14871;52.702;5.230;2023-05-07T01:27:32;22.58;;;20.17;;
27412;SDS011;14871;52.702;5.230;2023-05-07T01:29:58;24.08;;;20.52;;
27412;SDS011;14871;52.702;5.230;2023-05-07T01:32:38;20.95;;;18.85;;
27412;SDS011;14871;52.702;5.230;2023-05-07T01:35:10;21.88;;;18.50;;
27412;SDS011;14871;52.702;5.230;2023-05-07T01:37:37;21.23;;;17.02;;
27412;SDS011;14871;52.702;5.230;2023-05-07T01:40:04;22.83;;;18.10;;
27412;SDS011;14871;52.702;5.230;2023-05-07T01:42:32;20.13;;;17.42;;
27412;SDS011;14871;52.702;5.230;2023-05-07T01:44:57;18.85;;;16.42;;
27412;SDS011;14871;52.702;5.230;2023-05-07T01:47:23;18.70;;;16.75;;
27412;SDS011;14871;52.702;5.230;2023-05-07T01:49:50;18.13;;;16.23;;
27412;SDS011;14871;52.702;5.230;2023-05-07T01:52:15;18.52;;;16.55;;
27412;SDS011;14871;52.702;5.230;2023-05-07T01:54:41;18.00;;;15.70;;
27412;SDS011;14871;52.702;5.230;2023-05-07T01:57:07;18.90;;;15.68;;
27412;SDS011;14871;52.702;5.230;2023-05-07T01:59:33;19.23;;;15.45;;
27412;SDS011;14871;52.702;5.230;2023-05-07T02:01:59;17.90;;;15.60;;
27412;SDS011;14871;52.702;5.230;2023-05-07T02:04:25;18.08;;;14.18;;
27412;SDS011;14871;52.702;5.230;2023-05-07T02:06:51;15.85;;;13.90;;
27412;SDS011;14871;52.702;5.230;2023-05-07T02:09:17;16.25;;;14.55;;
27412;SDS011;14871;52.702;5.230;2023-05-07T02:11:43;16.38;;;14.15;;
27412;SDS011;14871;52.702;5.230;2023-05-07T02:14:09;13.82;;;12.48;;
27412;SDS011;14871;52.702;5.230;2023-05-07T02:16:35;15.40;;;13.80;;
27412;SDS011;14871;52.702;5.230;2023-05-07T02:19:01;15.45;;;13.63;;
27412;SDS011;14871;52.702;5.230;2023-05-07T02:21:27;16.38;;;14.10;;
27412;SDS011;14871;52.702;5.230;2023-05-07T02:23:52;14.32;;;12.82;;
27412;SDS011;14871;52.702;5.230;2023-05-07T02:26:18;15.93;;;13.07;;
27412;SDS011;14871;52.702;5.230;2023-05-07T02:28:44;13.93;;;12.48;;
27412;SDS011;14871;52.702;5.230;2023-05-07T02:31:09;15.77;;;12.38;;
27412;SDS011;14871;52.702;5.230;2023-05-07T02:33:35;13.77;;;11.95;;
27412;SDS011;14871;52.702;5.230;2023-05-07T02:36:05;14.68;;;12.52;;
27412;SDS011;14871;52.702;5.230;2023-05-07T02:38:37;14.30;;;11.57;;
27412;SDS011;14871;52.702;5.230;2023-05-07T02:41:03;14.63;;;11.32;;
27412;SDS011;14871;52.702;5.230;2023-05-07T02:43:29;12.38;;;11.25;;
27412;SDS011;14871;52.702;5.230;2023-05-07T02:46:08;12.20;;;11.07;;
27412;SDS011;14871;52.702;5.230;2023-05-07T02:48:34;15.10;;;11.00;;
27412;SDS011;14871;52.702;5.230;2023-05-07T02:51:00;15.90;;;11.45;;
27412;SDS011;14871;52.702;5.230;2023-05-07T02:53:27;13.15;;;11.57;;
27412;SDS011;14871;52.702;5.230;2023-05-07T02:55:53;13.07;;;11.38;;
27412;SDS011;14871;52.702;5.230;2023-05-07T02:58:19;13.60;;;12.20;;
27412;SDS011;14871;52.702;5.230;2023-05-07T03:00:45;14.82;;;11.50;;
27412;SDS011;14871;52.702;5.230;2023-05-07T03:03:11;13.68;;;12.18;;
27412;SDS011;14871;52.702;5.230;2023-05-07T03:05:36;14.07;;;12.32;;
27412;SDS011;14871;52.702;5.230;2023-05-07T03:08:02;13.60;;;12.13;;
27412;SDS011;14871;52.702;5.230;2023-05-07T03:10:29;13.43;;;12.13;;
27412;SDS011;14871;52.702;5.230;2023-05-07T03:12:55;13.68;;;12.30;;
27412;SDS011;14871;52.702;5.230;2023-05-07T03:15:21;15.35;;;12.55;;
27412;SDS011;14871;52.702;5.230;2023-05-07T03:17:46;15.23;;;13.07;;
27412;SDS011;14871;52.702;5.230;2023-05-07T03:20:15;15.32;;;13.65;;
27412;SDS011;14871;52.702;5.230;2023-05-07T03:22:41;14.77;;;13.23;;
27412;SDS011;14871;52.702;5.230;2023-05-07T03:25:07;14.45;;;13.05;;
27412;SDS011;14871;52.702;5.230;2023-05-07T03:27:33;14.25;;;12.70;;
27412;SDS011;14871;52.702;5.230;2023-05-07T03:29:59;14.30;;;12.90;;
27412;SDS011;14871;52.702;5.230;2023-05-07T03:32:25;15.25;;;13.73;;
27412;SDS011;14871;52.702;5.230;2023-05-07T03:34:51;13.80;;;12.40;;
27412;SDS011;14871;52.702;5.230;2023-05-07T03:37:16;14.73;;;12.85;;
27412;SDS011;14871;52.702;5.230;2023-05-07T03:39:42;15.18;;;12.68;;
27412;SDS011;14871;52.702;5.230;2023-05-07T03:42:08;14.48;;;12.98;;
27412;SDS011;14871;52.702;5.230;2023-05-07T03:44:34;14.13;;;12.82;;
27412;SDS011;14871;52.702;5.230;2023-05-07T03:47:01;14.90;;;12.60;;
27412;SDS011;14871;52.702;5.230;2023-05-07T03:49:27;14.00;;;12.63;;
27412;SDS011;14871;52.702;5.230;2023-05-07T03:51:53;13.68;;;12.25;;
27412;SDS011;14871;52.702;5.230;2023-05-07T03:54:18;14.88;;;12.90;;
27412;SDS011;14871;52.702;5.230;2023-05-07T03:56:44;14.23;;;12.68;;
27412;SDS011;14871;52.702;5.230;2023-05-07T03:59:10;15.07;;;11.90;;
27412;SDS011;14871;52.702;5.230;2023-05-07T04:01:36;15.95;;;13.18;;
27412;SDS011;14871;52.702;5.230;2023-05-07T04:04:02;13.85;;;12.48;;
27412;SDS011;14871;52.702;5.230;2023-05-07T04:06:29;14.80;;;13.30;;
27412;SDS011;14871;52.702;5.230;2023-05-07T04:08:55;15.95;;;14.32;;
27412;SDS011;14871;52.702;5.230;2023-05-07T04:11:20;16.33;;;14.63;;
27412;SDS011;14871;52.702;5.230;2023-05-07T04:13:46;17.75;;;16.00;;
27412;SDS011;14871;52.702;5.230;2023-05-07T04:16:12;19.40;;;17.23;;
27412;SDS011;14871;52.702;5.230;2023-05-07T04:18:38;19.33;;;17.42;;
27412;SDS011;14871;52.702;5.230;2023-05-07T04:21:03;22.23;;;19.48;;
27412;SDS011;14871;52.702;5.230;2023-05-07T04:23:29;23.73;;;20.33;;
27412;SDS011;14871;52.702;5.230;2023-05-07T04:25:55;27.83;;;24.92;;
27412;SDS011;14871;52.702;5.230;2023-05-07T04:28:21;33.47;;;27.02;;
27412;SDS011;14871;52.702;5.230;2023-05-07T04:30:46;29.23;;;26.13;;
27412;SDS011;14871;52.702;5.230;2023-05-07T04:33:13;29.77;;;26.58;;
27412;SDS011;14871;52.702;5.230;2023-05-07T04:35:41;32.60;;;28.40;;
27412;SDS011;14871;52.702;5.230;2023-05-07T04:38:06;32.17;;;28.88;;
27412;SDS011;14871;52.702;5.230;2023-05-07T04:40:32;35.38;;;31.45;;
27412;SDS011;14871;52.702;5.230;2023-05-07T04:42:57;37.10;;;33.42;;
27412;SDS011;14871;52.702;5.230;2023-05-07T04:45:23;38.22;;;34.10;;
27412;SDS011;14871;52.702;5.230;2023-05-07T04:47:49;37.72;;;33.38;;
27412;SDS011;14871;52.702;5.230;2023-05-07T04:50:14;37.65;;;33.63;;
27412;SDS011;14871;52.702;5.230;2023-05-07T04:52:40;36.80;;;33.17;;
27412;SDS011;14871;52.702;5.230;2023-05-07T04:55:06;37.00;;;33.05;;
27412;SDS011;14871;52.702;5.230;2023-05-07T04:57:32;35.80;;;31.92;;
27412;SDS011;14871;52.702;5.230;2023-05-07T04:59:58;36.38;;;32.50;;
27412;SDS011;14871;52.702;5.230;2023-05-07T05:02:24;35.38;;;31.73;;
27412;SDS011;14871;52.702;5.230;2023-05-07T05:04:49;35.38;;;31.67;;
27412;SDS011;14871;52.702;5.230;2023-05-07T05:07:15;33.13;;;29.85;;
27412;SDS011;14871;52.702;5.230;2023-05-07T05:09:41;33.90;;;30.35;;
27412;SDS011;14871;52.702;5.230;2023-05-07T05:12:06;31.65;;;28.38;;
27412;SDS011;14871;52.702;5.230;2023-05-07T05:14:32;33.20;;;28.75;;
27412;SDS011;14871;52.702;5.230;2023-05-07T05:16:58;31.33;;;28.02;;
27412;SDS011;14871;52.702;5.230;2023-05-07T05:19:24;32.58;;;28.88;;
27412;SDS011;14871;52.702;5.230;2023-05-07T05:21:49;30.92;;;27.65;;
27412;SDS011;14871;52.702;5.230;2023-05-07T05:24:15;29.75;;;26.45;;
27412;SDS011;14871;52.702;5.230;2023-05-07T05:26:41;30.27;;;27.10;;
27412;SDS011;14871;52.702;5.230;2023-05-07T05:29:06;29.90;;;26.70;;
27412;SDS011;14871;52.702;5.230;2023-05-07T05:31:32;30.20;;;26.98;;
27412;SDS011;14871;52.702;5.230;2023-05-07T05:33:58;28.65;;;25.40;;
27412;SDS011;14871;52.702;5.230;2023-05-07T05:36:24;28.85;;;25.75;;
27412;SDS011;14871;52.702;5.230;2023-05-07T05:38:50;27.48;;;24.52;;
27412;SDS011;14871;52.702;5.230;2023-05-07T05:41:16;29.13;;;24.85;;
27412;SDS011;14871;52.702;5.230;2023-05-07T05:43:42;30.35;;;26.58;;
27412;SDS011;14871;52.702;5.230;2023-05-07T05:46:07;30.33;;;26.42;;
27412;SDS011;14871;52.702;5.230;2023-05-07T05:48:36;31.38;;;25.73;;
27412;SDS011;14871;52.702;5.230;2023-05-07T05:51:01;30.80;;;25.95;;
27412;SDS011;14871;52.702;5.230;2023-05-07T05:53:27;35.05;;;26.83;;
27412;SDS011;14871;52.702;5.230;2023-05-07T05:55:53;36.50;;;27.33;;
27412;SDS011;14871;52.702;5.230;2023-05-07T05:58:18;29.08;;;26.02;;
27412;SDS011;14871;52.702;5.230;2023-05-07T06:00:44;32.05;;;28.58;;
27412;SDS011;14871;52.702;5.230;2023-05-07T06:03:10;32.25;;;25.65;;
27412;SDS011;14871;52.702;5.230;2023-05-07T06:05:36;30.50;;;26.40;;
27412;SDS011;14871;52.702;5.230;2023-05-07T06:08:02;29.02;;;24.95;;
27412;SDS011;14871;52.702;5.230;2023-05-07T06:10:27;30.13;;;26.05;;
27412;SDS011;14871;52.702;5.230;2023-05-07T06:12:54;28.88;;;25.65;;
27412;SDS011;14871;52.702;5.230;2023-05-07T06:15:20;32.38;;;26.52;;
27412;SDS011;14871;52.702;5.230;2023-05-07T06:17:46;32.67;;;27.33;;
27412;SDS011;14871;52.702;5.230;2023-05-07T06:20:11;35.65;;;28.05;;
27412;SDS011;14871;52.702;5.230;2023-05-07T06:22:37;30.80;;;26.85;;
27412;SDS011;14871;52.702;5.230;2023-05-07T06:25:03;36.13;;;27.13;;
27412;SDS011;14871;52.702;5.230;2023-05-07T06:27:29;33.22;;;27.77;;
27412;SDS011;14871;52.702;5.230;2023-05-07T06:29:54;29.42;;;26.27;;
27412;SDS011;14871;52.702;5.230;2023-05-07T06:32:20;33.88;;;27.90;;
27412;SDS011;14871;52.702;5.230;2023-05-07T06:34:46;31.40;;;28.00;;
27412;SDS011;14871;52.702;5.230;2023-05-07T06:37:11;31.33;;;27.45;;
27412;SDS011;14871;52.702;5.230;2023-05-07T06:39:37;33.88;;;28.85;;
27412;SDS011;14871;52.702;5.230;2023-05-07T06:42:03;31.75;;;27.20;;
27412;SDS011;14871;52.702;5.230;2023-05-07T06:44:29;34.63;;;27.98;;
27412;SDS011;14871;52.702;5.230;2023-05-07T06:46:55;31.40;;;27.35;;
27412;SDS011;14871;52.702;5.230;2023-05-07T06:49:21;33.47;;;28.85;;
27412;SDS011;14871;52.702;5.230;2023-05-07T06:51:47;33.88;;;29.48;;
27412;SDS011;14871;52.702;5.230;2023-05-07T06:54:13;31.90;;;28.02;;
27412;SDS011;14871;52.702;5.230;2023-05-07T06:56:38;33.10;;;28.20;;
27412;SDS011;14871;52.702;5.230;2023-05-07T06:59:04;36.75;;;29.08;;
27412;SDS011;14871;52.702;5.230;2023-05-07T07:01:30;36.10;;;28.52;;
27412;SDS011;14871;52.702;5.230;2023-05-07T07:03:55;34.30;;;28.98;;
27412;SDS011;14871;52.702;5.230;2023-05-07T07:06:21;34.67;;;28.83;;
27412;SDS011;14871;52.702;5.230;2023-05-07T07:08:46;33.58;;;28.15;;
27412;SDS011;14871;52.702;5.230;2023-05-07T07:11:12;33.33;;;28.35;;
27412;SDS011;14871;52.702;5.230;2023-05-07T07:13:38;34.05;;;28.30;;
27412;SDS011;14871;52.702;5.230;2023-05-07T07:16:05;35.38;;;28.35;;
27412;SDS011;14871;52.702;5.230;2023-05-07T07:18:31;32.38;;;28.30;;
27412;SDS011;14871;52.702;5.230;2023-05-07T07:20:56;31.65;;;27.95;;
27412;SDS011;14871;52.702;5.230;2023-05-07T07:23:22;32.72;;;28.63;;
27412;SDS011;14871;52.702;5.230;2023-05-07T07:25:48;35.10;;;28.92;;
27412;SDS011;14871;52.702;5.230;2023-05-07T07:28:14;33.63;;;29.17;;
27412;SDS011;14871;52.702;5.230;2023-05-07T07:30:39;30.92;;;27.58;;
27412;SDS011;14871;52.702;5.230;2023-05-07T07:33:05;36.80;;;28.20;;
27412;SDS011;14871;52.702;5.230;2023-05-07T07:35:34;34.80;;;27.75;;
27412;SDS011;14871;52.702;5.230;2023-05-07T07:38:00;33.90;;;28.92;;
27412;SDS011;14871;52.702;5.230;2023-05-07T07:40:26;30.52;;;27.20;;
27412;SDS011;14871;52.702;5.230;2023-05-07T07:42:53;35.33;;;28.90;;
27412;SDS011;14871;52.702;5.230;2023-05-07T07:45:19;35.97;;;28.00;;
27412;SDS011;14871;52.702;5.230;2023-05-07T07:47:45;33.42;;;26.42;;
27412;SDS011;14871;52.702;5.230;2023-05-07T07:50:11;36.05;;;28.88;;
27412;SDS011;14871;52.702;5.230;2023-05-07T07:52:37;30.08;;;26.48;;
27412;SDS011;14871;52.702;5.230;2023-05-07T07:55:02;36.05;;;29.02;;
27412;SDS011;14871;52.702;5.230;2023-05-07T07:57:29;35.15;;;27.55;;
27412;SDS011;14871;52.702;5.230;2023-05-07T07:59:55;35.05;;;28.52;;
27412;SDS011;14871;52.702;5.230;2023-05-07T08:02:20;32.63;;;29.17;;
27412;SDS011;14871;52.702;5.230;2023-05-07T08:04:46;37.35;;;28.27;;
27412;SDS011;14871;52.702;5.230;2023-05-07T08:07:12;33.60;;;27.55;;
27412;SDS011;14871;52.702;5.230;2023-05-07T08:09:38;32.63;;;28.58;;
27412;SDS011;14871;52.702;5.230;2023-05-07T08:12:05;33.05;;;27.58;;
27412;SDS011;14871;52.702;5.230;2023-05-07T08:14:31;29.70;;;26.45;;
27412;SDS011;14871;52.702;5.230;2023-05-07T08:16:57;33.72;;;27.10;;
27412;SDS011;14871;52.702;5.230;2023-05-07T08:19:23;34.58;;;27.13;;
27412;SDS011;14871;52.702;5.230;2023-05-07T08:21:49;31.30;;;26.40;;
27412;SDS011;14871;52.702;5.230;2023-05-07T08:24:15;31.17;;;26.75;;
27412;SDS011;14871;52.702;5.230;2023-05-07T08:26:41;30.98;;;26.38;;
27412;SDS011;14871;52.702;5.230;2023-05-07T08:29:07;32.10;;;25.80;;
27412;SDS011;14871;52.702;5.230;2023-05-07T08:31:33;30.73;;;26.25;;
27412;SDS011;14871;52.702;5.230;2023-05-07T08:33:59;31.42;;;26.05;;
27412;SDS011;14871;52.702;5.230;2023-05-07T08:36:25;31.50;;;26.88;;
27412;SDS011;14871;52.702;5.230;2023-05-07T08:38:50;33.67;;;26.92;;
27412;SDS011;14871;52.702;5.230;2023-05-07T08:41:16;30.42;;;25.67;;
27412;SDS011;14871;52.702;5.230;2023-05-07T08:43:42;31.98;;;26.27;;
27412;SDS011;14871;52.702;5.230;2023-05-07T08:46:12;30.42;;;26.27;;
27412;SDS011;14871;52.702;5.230;2023-05-07T08:48:49;32.88;;;26.85;;
27412;SDS011;14871;52.702;5.230;2023-05-07T08:51:16;34.22;;;26.92;;
27412;SDS011;14871;52.702;5.230;2023-05-07T08:53:45;33.28;;;26.48;;
27412;SDS011;14871;52.702;5.230;2023-05-07T08:56:15;33.20;;;28.27;;
27412;SDS011;14871;52.702;5.230;2023-05-07T08:58:42;32.50;;;27.23;;
27412;SDS011;14871;52.702;5.230;2023-05-07T09:01:09;34.78;;;27.55;;
27412;SDS011;14871;52.702;5.230;2023-05-07T09:03:39;31.17;;;27.42;;
27412;SDS011;14871;52.702;5.230;2023-05-07T09:06:06;34.72;;;27.77;;
27412;SDS011;14871;52.702;5.230;2023-05-07T09:08:33;31.42;;;26.00;;
27412;SDS011;14871;52.702;5.230;2023-05-07T09:10:59;29.58;;;26.38;;
27412;SDS011;14871;52.702;5.230;2023-05-07T09:13:25;31.73;;;25.75;;
27412;SDS011;14871;52.702;5.230;2023-05-07T09:15:53;31.58;;;27.38;;
27412;SDS011;14871;52.702;5.230;2023-05-07T09:18:19;30.10;;;26.85;;
27412;SDS011;14871;52.702;5.230;2023-05-07T09:20:45;28.80;;;25.70;;
27412;SDS011;14871;52.702;5.230;2023-05-07T09:23:11;31.35;;;25.98;;
27412;SDS011;14871;52.702;5.230;2023-05-07T09:25:37;31.13;;;27.08;;
27412;SDS011;14871;52.702;5.230;2023-05-07T09:28:03;33.75;;;27.60;;
27412;SDS011;14871;52.702;5.230;2023-05-07T09:30:32;32.35;;;26.92;;
27412;SDS011;14871;52.702;5.230;2023-05-07T09:32:59;33.90;;;27.33;;
27412;SDS011;14871;52.702;5.230;2023-05-07T09:35:26;29.38;;;25.70;;
27412;SDS011;14871;52.702;5.230;2023-05-07T09:37:55;31.48;;;26.85;;
27412;SDS011;14871;52.702;5.230;2023-05-07T09:40:27;30.13;;;26.10;;
27412;SDS011;14871;52.702;5.230;2023-05-07T09:42:54;28.90;;;25.80;;
27412;SDS011;14871;52.702;5.230;2023-05-07T09:45:21;30.85;;;27.00;;
27412;SDS011;14871;52.702;5.230;2023-05-07T09:47:53;30.23;;;25.80;;
27412;SDS011;14871;52.702;5.230;2023-05-07T09:50:27;29.73;;;26.23;;
27412;SDS011;14871;52.702;5.230;2023-05-07T09:52:55;29.02;;;24.65;;
27412;SDS011;14871;52.702;5.230;2023-05-07T09:55:22;28.88;;;25.77;;
27412;SDS011;14871;52.702;5.230;2023-05-07T09:57:52;30.90;;;27.13;;
27412;SDS011;14871;52.702;5.230;2023-05-07T10:00:19;27.35;;;24.40;;
27412;SDS011;14871;52.702;5.230;2023-05-07T10:02:47;27.90;;;24.88;;
27412;SDS011;14871;52.702;5.230;2023-05-07T10:05:14;30.17;;;27.08;;
27412;SDS011;14871;52.702;5.230;2023-05-07T10:07:41;28.10;;;25.08;;
27412;SDS011;14871;52.702;5.230;2023-05-07T10:10:08;27.48;;;23.50;;
27412;SDS011;14871;52.702;5.230;2023-05-07T10:12:35;28.58;;;24.80;;
27412;SDS011;14871;52.702;5.230;2023-05-07T10:15:08;32.22;;;26.67;;
27412;SDS011;14871;52.702;5.230;2023-05-07T10:17:38;32.03;;;26.90;;
27412;SDS011;14871;52.702;5.230;2023-05-07T10:20:06;30.23;;;24.40;;
27412;SDS011;14871;52.702;5.230;2023-05-07T10:22:37;28.75;;;23.40;;
27412;SDS011;14871;52.702;5.230;2023-05-07T10:25:14;26.52;;;23.73;;
27412;SDS011;14871;52.702;5.230;2023-05-07T10:27:55;30.05;;;25.08;;
27412;SDS011;14871;52.702;5.230;2023-05-07T10:33:09;26.75;;;23.90;;
27412;SDS011;14871;52.702;5.230;2023-05-07T10:35:40;29.58;;;23.48;;
27412;SDS011;14871;52.702;5.230;2023-05-07T10:38:08;29.42;;;24.75;;
27412;SDS011;14871;52.702;5.230;2023-05-07T10:40:34;28.15;;;23.23;;
27412;SDS011;14871;52.702;5.230;2023-05-07T10:43:02;27.13;;;23.25;;
27412;SDS011;14871;52.702;5.230;2023-05-07T10:45:32;26.73;;;23.88;;
27412;SDS011;14871;52.702;5.230;2023-05-07T10:48:07;25.17;;;22.52;;
27412;SDS011;14871;52.702;5.230;2023-05-07T10:50:33;27.92;;;24.92;;
27412;SDS011;14871;52.702;5.230;2023-05-07T10:55:51;28.95;;;24.08;;
27412;SDS011;14871;52.702;5.230;2023-05-07T10:58:37;26.70;;;23.45;;
27412;SDS011;14871;52.702;5.230;2023-05-07T11:01:02;24.98;;;22.38;;
27412;SDS011;14871;52.702;5.230;2023-05-07T11:03:28;26.35;;;23.48;;
27412;SDS011;14871;52.702;5.230;2023-05-07T11:06:11;25.80;;;23.02;;
27412;SDS011;14871;52.702;5.230;2023-05-07T11:14:10;28.13;;;23.02;;
27412;SDS011;14871;52.702;5.230;2023-05-07T11:16:36;27.02;;;23.95;;
27412;SDS011;14871;52.702;5.230;2023-05-07T11:19:03;25.38;;;22.60;;
27412;SDS011;14871;52.702;5.230;2023-05-07T11:21:39;27.23;;;22.55;;
27412;SDS011;14871;52.702;5.230;2023-05-07T11:24:07;27.13;;;23.60;;
27412;SDS011;14871;52.702;5.230;2023-05-07T11:26:44;25.52;;;22.70;;
27412;SDS011;14871;52.702;5.230;2023-05-07T11:29:17;27.67;;;22.45;;
27412;SDS011;14871;52.702;5.230;2023-05-07T11:31:48;29.52;;;23.55;;
27412;SDS011;14871;52.702;5.230;2023-05-07T11:34:23;25.30;;;22.35;;
27412;SDS011;14871;52.702;5.230;2023-05-07T11:36:50;26.70;;;22.60;;
27412;SDS011;14871;52.702;5.230;2023-05-07T11:39:30;27.95;;;22.10;;
27412;SDS011;14871;52.702;5.230;2023-05-07T11:41:58;25.73;;;22.98;;
27412;SDS011;14871;52.702;5.230;2023-05-07T11:44:25;27.70;;;24.48;;
27412;SDS011;14871;52.702;5.230;2023-05-07T11:47:03;28.80;;;24.33;;
27412;SDS011;14871;52.702;5.230;2023-05-07T11:49:29;26.63;;;23.73;;
27412;SDS011;14871;52.702;5.230;2023-05-07T11:51:55;27.70;;;23.42;;
27412;SDS011;14871;52.702;5.230;2023-05-07T11:54:21;25.60;;;22.90;;
27412;SDS011;14871;52.702;5.230;2023-05-07T11:56:47;26.90;;;23.08;;
27412;SDS011;14871;52.702;5.230;2023-05-07T11:59:17;24.80;;;22.00;;
27412;SDS011;14871;52.702;5.230;2023-05-07T12:01:45;23.65;;;21.25;;
27412;SDS011;14871;52.702;5.230;2023-05-07T12:04:11;27.70;;;24.77;;
27412;SDS011;14871;52.702;5.230;2023-05-07T12:06:37;27.30;;;23.83;;
27412;SDS011;14871;52.702;5.230;2023-05-07T12:09:03;26.10;;;23.38;;
27412;SDS011;14871;52.702;5.230;2023-05-07T12:11:32;27.55;;;24.52;;
27412;SDS011;14871;52.702;5.230;2023-05-07T12:13:57;27.15;;;22.83;;
27412;SDS011;14871;52.702;5.230;2023-05-07T12:16:23;27.13;;;24.17;;
27412;SDS011;14871;52.702;5.230;2023-05-07T12:18:50;23.17;;;20.70;;
27412;SDS011;14871;52.702;5.230;2023-05-07T12:21:17;24.13;;;20.80;;
27412;SDS011;14871;52.702;5.230;2023-05-07T12:23:43;21.98;;;19.58;;
27412;SDS011;14871;52.702;5.230;2023-05-07T12:26:10;25.63;;;22.67;;
27412;SDS011;14871;52.702;5.230;2023-05-07T12:28:36;23.15;;;20.75;;
27412;SDS011;14871;52.702;5.230;2023-05-07T12:31:04;23.75;;;21.17;;
27412;SDS011;14871;52.702;5.230;2023-05-07T12:33:30;21.52;;;19.38;;
27412;SDS011;14871;52.702;5.230;2023-05-07T12:35:57;23.90;;;19.88;;
27412;SDS011;14871;52.702;5.230;2023-05-07T12:38:27;22.80;;;20.33;;
27412;SDS011;14871;52.702;5.230;2023-05-07T12:43:28;23.13;;;19.90;;
27412;SDS011;14871;52.702;5.230;2023-05-07T12:45:55;24.38;;;21.88;;
27412;SDS011;14871;52.702;5.230;2023-05-07T12:48:22;24.60;;;21.05;;
27412;SDS011;14871;52.702;5.230;2023-05-07T12:50:52;22.90;;;20.55;;
27412;SDS011;14871;52.702;5.230;2023-05-07T12:53:23;23.05;;;19.92;;
27412;SDS011;14871;52.702;5.230;2023-05-07T12:55:51;22.42;;;20.13;;
27412;SDS011;14871;52.702;5.230;2023-05-07T12:58:19;24.85;;;20.92;;
27412;SDS011;14871;52.702;5.230;2023-05-07T13:00:51;22.88;;;19.50;;
27412;SDS011;14871;52.702;5.230;2023-05-07T13:03:33;22.88;;;20.45;;
27412;SDS011;14871;52.702;5.230;2023-05-07T13:06:01;21.90;;;19.58;;
27412;SDS011;14871;52.702;5.230;2023-05-07T13:08:30;22.02;;;19.63;;
27412;SDS011;14871;52.702;5.230;2023-05-07T13:10:58;21.85;;;19.55;;
27412;SDS011;14871;52.702;5.230;2023-05-07T13:13:28;22.58;;;20.10;;
27412;SDS011;14871;52.702;5.230;2023-05-07T13:15:53;24.83;;;22.02;;
27412;SDS011;14871;52.702;5.230;2023-05-07T13:18:24;23.65;;;20.77;;
27412;SDS011;14871;52.702;5.230;2023-05-07T13:20:51;25.85;;;22.83;;
27412;SDS011;14871;52.702;5.230;2023-05-07T13:23:17;25.13;;;22.30;;
27412;SDS011;14871;52.702;5.230;2023-05-07T13:25:43;25.05;;;21.90;;
27412;SDS011;14871;52.702;5.230;2023-05-07T13:28:11;27.40;;;23.30;;
27412;SDS011;14871;52.702;5.230;2023-05-07T13:30:37;26.58;;;23.33;;
27412;SDS011;14871;52.702;5.230;2023-05-07T13:33:03;25.60;;;22.83;;
27412;SDS011;14871;52.702;5.230;2023-05-07T13:35:29;25.33;;;22.63;;
27412;SDS011;14871;52.702;5.230;2023-05-07T13:37:55;24.17;;;21.55;;
27412;SDS011;14871;52.702;5.230;2023-05-07T13:40:22;25.98;;;22.30;;
27412;SDS011;14871;52.702;5.230;2023-05-07T13:42:48;28.58;;;24.73;;
27412;SDS011;14871;52.702;5.230;2023-05-07T13:45:15;26.92;;;24.02;;
27412;SDS011;14871;52.702;5.230;2023-05-07T13:47:41;29.08;;;22.17;;
27412;SDS011;14871;52.702;5.230;2023-05-07T13:50:08;26.25;;;23.45;;
27412;SDS011;14871;52.702;5.230;2023-05-07T13:52:34;27.23;;;23.05;;
27412;SDS011;14871;52.702;5.230;2023-05-07T13:55:00;26.45;;;22.10;;
27412;SDS011;14871;52.702;5.230;2023-05-07T13:57:26;23.70;;;20.35;;
27412;SDS011;14871;52.702;5.230;2023-05-07T13:59:52;22.90;;;20.17;;
27412;SDS011;14871;52.702;5.230;2023-05-07T14:02:18;20.83;;;18.50;;
27412;SDS011;14871;52.702;5.230;2023-05-07T14:04:44;21.13;;;17.88;;
27412;SDS011;14871;52.702;5.230;2023-05-07T14:07:11;20.52;;;17.23;;
27412;SDS011;14871;52.702;5.230;2023-05-07T14:09:37;20.30;;;17.15;;
27412;SDS011;14871;52.702;5.230;2023-05-07T14:12:03;18.63;;;15.05;;
27412;SDS011;14871;52.702;5.230;2023-05-07T14:14:30;20.15;;;16.27;;
27412;SDS011;14871;52.702;5.230;2023-05-07T14:16:59;16.70;;;14.68;;
27412;SDS011;14871;52.702;5.230;2023-05-07T14:19:25;17.23;;;14.50;;
27412;SDS011;14871;52.702;5.230;2023-05-07T14:21:51;17.02;;;15.20;;
27412;SDS011;14871;52.702;5.230;2023-05-07T14:24:17;18.63;;;16.15;;
27412;SDS011;14871;52.702;5.230;2023-05-07T14:26:42;18.38;;;16.27;;
27412;SDS011;14871;52.702;5.230;2023-05-07T14:29:08;18.50;;;16.35;;
27412;SDS011;14871;52.702;5.230;2023-05-07T14:31:34;17.85;;;15.88;;
27412;SDS011;14871;52.702;5.230;2023-05-07T14:34:00;20.35;;;15.82;;